Prairie Farm, Wisconsin
Current Conditions -  °F | °C
As of 9:55 PM on Tuesday 21 Oct 2014 (Local Time) from KRPD Reporting Station
Clear Clear  
Wind Chill: 38°   Ceiling: Unl
Heat Index: 42°   Visibility: 10mi
Dew Point: 36°   Wind: 7mph
Humidity: 77%   Direction: 130°SE
Pressure: 30.24"   Gusts: NA
Location:  45.24°N, 91.98°W
Report Text: KRPD 220255Z AUTO 13006KT 10SM CLR 06/02 A3024 RMK AO2 T00580020
Loading
Personal Weather Stations






























Interactive Weather Map
Tropical Storm Tracking
New forecast layout! Learn more

10-Day Weather Forecast

Advertisements
Track Severe Weather on mobile